createdAt,value
2019-02-26T00:02:02.578Z,19.20
2019-02-26T00:04:35.039Z,18.77
2019-02-26T00:07:05.587Z,17.32
2019-02-26T00:09:35.289Z,18.32
2019-02-26T00:12:07.198Z,18.30
2019-02-26T00:14:36.263Z,18.73
2019-02-26T00:17:10.749Z,18.85
2019-02-26T00:19:40.632Z,18.85
2019-02-26T00:22:13.864Z,19.87
2019-02-26T00:24:44.388Z,20.08
2019-02-26T00:27:16.679Z,19.57
2019-02-26T00:29:51.365Z,19.82
2019-02-26T00:32:21.462Z,18.37
2019-02-26T00:34:53.152Z,19.23
2019-02-26T00:37:28.507Z,17.92
2019-02-26T00:39:57.722Z,18.55
2019-02-26T00:42:29.400Z,19.07
2019-02-26T00:45:01.023Z,18.57
2019-02-26T00:47:34.449Z,18.27
2019-02-26T00:54:06.764Z,18.20
2019-02-26T00:56:38.547Z,18.98
2019-02-26T00:59:07.725Z,18.92
2019-02-26T01:01:39.894Z,19.05
2019-02-26T01:04:08.878Z,18.55
2019-02-26T01:06:39.682Z,18.65
2019-02-26T01:09:11.246Z,18.30
2019-02-26T01:11:40.697Z,18.35
2019-02-26T01:14:09.730Z,18.17
2019-02-26T01:16:39.452Z,19.30
2019-02-26T01:19:10.914Z,17.23
2019-02-26T01:25:13.448Z,18.73
2019-02-26T01:27:47.602Z,18.67
2019-02-26T01:30:21.161Z,19.95
2019-02-26T01:32:46.568Z,20.57
2019-02-26T01:35:15.571Z,19.52
2019-02-26T01:37:49.360Z,18.62
2019-02-26T01:40:21.112Z,20.35
2019-02-26T01:42:52.212Z,19.65
2019-02-26T01:45:21.753Z,19.95
2019-02-26T01:47:52.794Z,20.50
2019-02-26T01:50:24.695Z,22.30
2019-02-26T01:52:58.669Z,22.27
2019-02-26T01:55:28.571Z,22.42
2019-02-26T01:58:03.205Z,22.80
2019-02-26T02:00:33.817Z,21.40
2019-02-26T02:03:05.685Z,20.57
2019-02-26T02:05:40.283Z,21.30
2019-02-26T02:08:13.079Z,21.10
2019-02-26T02:10:40.790Z,21.23
2019-02-26T02:13:11.363Z,21.73
2019-02-26T02:15:44.232Z,21.50
2019-02-26T02:18:14.529Z,21.97
2019-02-26T02:20:48.588Z,22.75
2019-02-26T02:23:23.481Z,21.80
2019-02-26T02:25:53.885Z,21.90
2019-02-26T02:28:23.940Z,21.70
2019-02-26T02:30:55.763Z,21.33
2019-02-26T02:33:26.769Z,21.87
2019-02-26T02:36:02.233Z,21.33
2019-02-26T02:38:36.464Z,21.05
2019-02-26T02:41:04.480Z,20.35
2019-02-26T02:43:36.840Z,21.65
2019-02-26T02:46:05.812Z,20.60
2019-02-26T02:48:34.858Z,20.90
2019-02-26T02:51:07.846Z,20.68
2019-02-26T02:53:37.579Z,19.82
2019-02-26T02:56:12.412Z,20.97
2019-02-26T02:58:41.823Z,20.43
2019-02-26T03:01:16.504Z,20.30
2019-02-26T03:03:50.282Z,21.30
2019-02-26T03:06:17.038Z,19.70
2019-02-26T03:08:47.971Z,19.85
2019-02-26T03:11:18.615Z,19.95
2019-02-26T03:13:51.213Z,19.70
2019-02-26T03:16:33.798Z,19.92
2019-02-26T03:19:06.703Z,19.95
2019-02-26T03:21:35.310Z,20.57
2019-02-26T03:24:08.635Z,20.70
2019-02-26T03:26:41.968Z,20.72
2019-02-26T03:29:10.930Z,19.40
2019-02-26T03:31:45.299Z,19.37
2019-02-26T03:34:15.743Z,21.25
2019-02-26T03:36:45.643Z,21.00
2019-02-26T03:39:14.194Z,21.15
2019-02-26T03:41:48.476Z,22.65
2019-02-26T03:44:17.424Z,22.52
2019-02-26T03:46:50.702Z,21.52
2019-02-26T03:49:19.726Z,20.43
2019-02-26T03:51:49.396Z,20.08
2019-02-26T03:54:18.356Z,19.00
2019-02-26T03:56:47.621Z,19.57
2019-02-26T03:59:16.577Z,19.50
2019-02-26T04:01:48.352Z,19.10
2019-02-26T04:04:20.444Z,19.87
2019-02-26T04:06:47.987Z,19.60
2019-02-26T04:09:23.138Z,21.30
2019-02-26T04:11:53.408Z,20.92
2019-02-26T04:14:26.367Z,20.25
2019-02-26T04:16:56.092Z,21.12
2019-02-26T04:19:26.903Z,20.80
2019-02-26T04:22:20.897Z,21.23
2019-02-26T04:24:50.108Z,19.48
2019-02-26T04:27:33.512Z,21.15
2019-02-26T04:30:20.816Z,19.07
2019-02-26T04:33:11.641Z,20.20
2019-02-26T04:35:45.871Z,20.85
2019-02-26T04:38:18.158Z,20.43
2019-02-26T04:40:48.981Z,20.20
2019-02-26T04:43:27.381Z,21.60
2019-02-26T04:46:02.263Z,21.20
2019-02-26T04:48:38.620Z,19.92
2019-02-26T04:51:10.423Z,20.30
2019-02-26T04:53:41.304Z,20.25
2019-02-26T04:56:15.002Z,20.17
2019-02-26T04:58:45.909Z,21.00
2019-02-26T05:01:18.939Z,20.60
2019-02-26T05:03:50.474Z,21.48
2019-02-26T05:06:25.504Z,20.75
2019-02-26T05:08:59.339Z,21.73
2019-02-26T05:11:31.674Z,21.85
2019-02-26T05:13:57.462Z,22.40
2019-02-26T05:16:29.495Z,21.90
2019-02-26T05:19:02.062Z,22.45
2019-02-26T05:21:35.368Z,23.05
2019-02-26T05:24:07.374Z,23.77
2019-02-26T05:26:39.406Z,22.13
2019-02-26T05:29:11.667Z,22.90
2019-02-26T05:31:43.037Z,23.22
2019-02-26T05:34:12.449Z,21.95
2019-02-26T05:36:46.203Z,22.10
2019-02-26T05:39:23.736Z,22.75
2019-02-26T05:41:54.855Z,21.97
2019-02-26T05:44:26.126Z,22.30
2019-02-26T05:46:58.873Z,23.12
2019-02-26T05:49:31.546Z,23.05
2019-02-26T05:52:01.592Z,22.87
2019-02-26T05:54:30.374Z,22.27
2019-02-26T05:57:01.882Z,22.75
2019-02-26T05:59:33.694Z,22.93
2019-02-26T06:02:02.742Z,22.22
2019-02-26T06:04:32.530Z,21.57
2019-02-26T06:07:04.753Z,22.25
2019-02-26T06:09:35.086Z,22.35
2019-02-26T06:14:36.354Z,23.15
2019-02-26T06:17:10.653Z,22.52
2019-02-26T06:19:44.978Z,23.92
2019-02-26T06:22:16.951Z,22.32
2019-02-26T06:24:44.878Z,23.40
2019-02-26T06:27:16.630Z,23.52
2019-02-26T06:29:44.573Z,24.02
2019-02-26T06:32:14.630Z,24.10
2019-02-26T06:37:16.415Z,22.32
2019-02-26T06:39:50.538Z,23.05
2019-02-26T06:42:17.886Z,23.67
2019-02-26T06:44:48.905Z,25.20
2019-02-26T06:47:17.522Z,23.95
2019-02-26T06:49:48.427Z,23.35
2019-02-26T06:52:20.453Z,24.82
2019-02-26T06:54:57.312Z,22.82
2019-02-26T06:57:44.005Z,23.12
2019-02-26T07:00:21.502Z,22.73
2019-02-26T07:02:49.341Z,23.15
2019-02-26T07:05:25.976Z,23.67
2019-02-26T07:07:57.148Z,23.98
2019-02-26T07:10:29.517Z,24.23
2019-02-26T07:13:02.154Z,23.55
2019-02-26T07:15:32.303Z,24.40
2019-02-26T07:18:04.452Z,24.90
2019-02-26T07:20:34.260Z,24.67
2019-02-26T07:23:03.899Z,24.27
2019-02-26T07:25:38.880Z,24.20
2019-02-26T07:28:12.558Z,24.30
2019-02-26T07:30:44.143Z,24.50
2019-02-26T07:33:14.981Z,24.18
2019-02-26T07:35:46.168Z,23.85
2019-02-26T07:38:20.729Z,24.47
2019-02-26T07:40:51.163Z,24.10
2019-02-26T07:43:22.513Z,25.10
2019-02-26T07:45:53.156Z,24.60
2019-02-26T07:48:23.726Z,24.63
2019-02-26T07:50:53.286Z,26.12
2019-02-26T07:53:26.489Z,24.70
2019-02-26T07:55:58.820Z,25.32
2019-02-26T07:58:30.917Z,27.32
2019-02-26T08:01:01.267Z,25.92
2019-02-26T08:03:32.141Z,25.97
2019-02-26T08:06:06.176Z,26.10
2019-02-26T08:08:34.699Z,26.50
2019-02-26T08:11:03.890Z,26.25
2019-02-26T08:13:34.006Z,27.97
2019-02-26T08:16:05.134Z,26.62
2019-02-26T08:18:34.294Z,26.23
2019-02-26T08:21:05.032Z,27.73
2019-02-26T08:23:33.972Z,27.50
2019-02-26T08:26:07.430Z,27.10
2019-02-26T08:28:38.898Z,27.33
2019-02-26T08:31:11.197Z,26.33
2019-02-26T08:33:38.860Z,26.07
2019-02-26T08:36:08.024Z,25.90
2019-02-26T08:38:36.971Z,27.83
2019-02-26T08:41:06.013Z,26.27
2019-02-26T08:43:35.056Z,26.40
2019-02-26T08:46:04.094Z,28.25
2019-02-26T08:51:05.431Z,26.37
2019-02-26T08:53:34.408Z,26.35
2019-02-26T08:56:04.066Z,27.57
2019-02-26T08:58:41.118Z,26.02
2019-02-26T09:01:10.280Z,25.27
2019-02-26T09:03:42.114Z,25.30
2019-02-26T09:06:13.583Z,25.92
2019-02-26T09:08:43.103Z,26.95
2019-02-26T09:11:14.120Z,25.77
2019-02-26T09:13:43.982Z,25.82
2019-02-26T09:16:21.792Z,27.10
2019-02-26T09:18:51.638Z,26.15
2019-02-26T09:21:34.640Z,26.45
2019-02-26T09:24:05.471Z,26.45
2019-02-26T09:26:34.686Z,26.35
2019-02-26T09:29:05.418Z,26.82
2019-02-26T09:31:34.428Z,25.82
2019-02-26T09:34:04.668Z,25.23
2019-02-26T09:36:34.211Z,25.43
2019-02-26T09:39:08.791Z,25.48
2019-02-26T09:41:43.359Z,25.92
2019-02-26T09:44:12.854Z,25.12
2019-02-26T09:49:13.114Z,24.52
2019-02-26T09:51:43.321Z,25.75
2019-02-26T09:54:17.220Z,26.40
2019-02-26T09:56:47.299Z,27.05
2019-02-26T09:59:17.474Z,25.25
2019-02-26T10:01:49.513Z,25.23
2019-02-26T10:04:19.776Z,25.82
2019-02-26T10:06:50.857Z,25.25
2019-02-26T10:09:24.790Z,26.25
2019-02-26T10:11:55.502Z,24.90
2019-02-26T10:14:26.376Z,25.05
2019-02-26T10:16:58.425Z,26.55
2019-02-26T10:19:27.403Z,21.73
2019-02-26T10:21:57.280Z,21.25
2019-02-26T10:24:30.236Z,22.32
2019-02-26T10:27:03.165Z,22.07
2019-02-26T10:29:39.840Z,21.82
2019-02-26T10:32:11.225Z,22.50
2019-02-26T10:34:40.310Z,21.73
2019-02-26T10:37:09.277Z,21.80
2019-02-26T10:39:38.323Z,21.77
2019-02-26T10:42:07.294Z,21.40
2019-02-26T10:44:36.276Z,21.68
2019-02-26T10:47:07.173Z,20.88
2019-02-26T10:49:40.699Z,21.25
2019-02-26T10:52:16.552Z,20.75
2019-02-26T10:54:46.617Z,20.12
2019-02-26T10:57:17.245Z,19.05
2019-02-26T10:59:46.220Z,17.92
2019-02-26T11:02:17.823Z,18.45
2019-02-26T11:04:52.564Z,17.57
2019-02-26T11:07:26.426Z,17.32
2019-02-26T11:09:58.848Z,16.73
2019-02-26T11:12:34.042Z,16.02
2019-02-26T11:15:06.746Z,15.78
2019-02-26T11:17:38.414Z,17.17
2019-02-26T11:20:10.587Z,15.32
2019-02-26T11:22:47.196Z,16.97
2019-02-26T11:25:22.307Z,15.55
2019-02-26T11:27:50.690Z,16.10
2019-02-26T11:30:23.105Z,14.83
2019-02-26T11:32:56.195Z,15.93
2019-02-26T11:35:24.454Z,13.53
2019-02-26T11:37:54.949Z,12.65
2019-02-26T11:40:27.643Z,11.38
2019-02-26T11:42:59.646Z,12.43
2019-02-26T11:45:34.646Z,12.95
2019-02-26T11:48:03.732Z,12.13
2019-02-26T11:50:34.707Z,12.63
2019-02-26T11:55:40.394Z,12.23
2019-02-26T11:58:10.832Z,10.55
2019-02-26T12:00:50.694Z,9.75
2019-02-26T12:03:27.207Z,11.35
2019-02-26T12:05:56.665Z,10.15
2019-02-26T12:08:26.214Z,9.85
2019-02-26T12:10:58.008Z,11.48
2019-02-26T12:13:47.346Z,10.53
2019-02-26T12:16:18.976Z,11.03
2019-02-26T12:18:47.949Z,9.28
2019-02-26T12:21:20.600Z,10.40
2019-02-26T12:23:50.316Z,10.50
2019-02-26T12:26:27.695Z,9.50
2019-02-26T12:28:57.749Z,9.18
2019-02-26T12:31:31.214Z,11.28
2019-02-26T12:33:58.714Z,11.73
2019-02-26T12:36:32.514Z,11.40
2019-02-26T12:42:39.572Z,9.93
2019-02-26T12:45:13.737Z,9.88
2019-02-26T12:47:48.709Z,10.23
2019-02-26T12:50:20.195Z,9.68
2019-02-26T12:52:51.605Z,8.85
2019-02-26T12:55:22.703Z,9.48
2019-02-26T12:57:56.140Z,8.50
2019-02-26T13:00:24.551Z,7.60
2019-02-26T13:02:53.517Z,8.93
2019-02-26T13:05:23.118Z,8.00
2019-02-26T13:07:53.540Z,7.72
2019-02-26T13:10:27.057Z,9.45
2019-02-26T13:13:00.183Z,9.18
2019-02-26T13:15:30.184Z,8.83
2019-02-26T13:17:59.167Z,10.70
2019-02-26T13:20:31.325Z,10.53
2019-02-26T13:23:16.320Z,10.00
2019-02-26T13:25:31.081Z,9.05
2019-02-26T13:28:00.081Z,9.30
2019-02-26T13:30:31.822Z,8.87
2019-02-26T13:33:05.022Z,9.23
2019-02-26T13:35:31.967Z,9.18
2019-02-26T13:38:02.841Z,9.15
2019-02-26T13:40:38.472Z,9.13
2019-02-26T13:43:09.132Z,8.35
2019-02-26T13:45:42.424Z,9.33
2019-02-26T13:48:17.761Z,8.93
2019-02-26T13:50:48.310Z,8.15
2019-02-26T13:53:17.273Z,8.20
2019-02-26T13:55:49.447Z,8.67
2019-02-26T13:58:18.417Z,9.13
2019-02-26T14:00:47.467Z,9.73
2019-02-26T14:03:20.203Z,9.48
2019-02-26T14:05:50.705Z,10.43
2019-02-26T14:08:21.279Z,10.45
2019-02-26T14:10:50.299Z,10.55
2019-02-26T14:13:22.450Z,11.40
2019-02-26T14:15:53.046Z,11.75
2019-02-26T14:18:26.105Z,12.83
2019-02-26T14:20:56.563Z,12.82
2019-02-26T14:23:26.174Z,12.28
2019-02-26T14:25:55.203Z,12.28
2019-02-26T14:28:25.961Z,11.55
2019-02-26T14:30:54.916Z,11.00
2019-02-26T14:33:34.818Z,11.87
2019-02-26T14:36:08.035Z,11.08
2019-02-26T14:38:37.007Z,11.80
2019-02-26T14:41:07.593Z,11.25
2019-02-26T14:43:39.784Z,12.13
2019-02-26T14:46:08.828Z,11.53
2019-02-26T14:48:41.219Z,12.28
2019-02-26T14:51:12.356Z,12.15
2019-02-26T14:53:45.397Z,12.47
2019-02-26T14:56:17.490Z,11.22
2019-02-26T14:58:48.438Z,11.55
2019-02-26T15:01:17.588Z,11.70
2019-02-26T15:03:48.494Z,11.53
2019-02-26T15:06:17.464Z,12.03
2019-02-26T15:12:13.256Z,11.97
2019-02-26T15:14:44.620Z,12.37
2019-02-26T15:17:13.664Z,11.80
2019-02-26T15:19:49.659Z,12.28
2019-02-26T15:22:17.975Z,12.60
2019-02-26T15:24:48.919Z,12.88
2019-02-26T15:27:22.979Z,13.22
2019-02-26T15:29:54.887Z,13.35
2019-02-26T15:32:25.302Z,13.48
2019-02-26T15:34:58.789Z,13.73
2019-02-26T15:40:19.463Z,13.38
2019-02-26T15:42:56.297Z,13.75
2019-02-26T15:45:24.598Z,13.18
2019-02-26T15:47:53.633Z,13.75
2019-02-26T15:50:22.605Z,14.00
2019-02-26T15:52:53.659Z,14.00
2019-02-26T15:55:25.935Z,14.07
2019-02-26T15:57:56.031Z,13.62
2019-02-26T16:00:25.465Z,13.53
2019-02-26T16:02:59.350Z,13.55
2019-02-26T16:05:32.917Z,13.75
2019-02-26T16:08:02.223Z,13.85
2019-02-26T16:10:31.191Z,13.75
2019-02-26T16:13:08.174Z,14.63
2019-02-26T16:15:39.030Z,13.48
2019-02-26T16:18:08.097Z,13.35
2019-02-26T16:20:37.599Z,13.80
2019-02-26T16:23:09.842Z,13.83
2019-02-26T16:25:38.803Z,13.78
2019-02-26T16:28:07.828Z,14.40
2019-02-26T16:30:38.718Z,14.13
2019-02-26T16:33:14.350Z,15.10
2019-02-26T16:35:49.874Z,13.85
2019-02-26T16:38:20.472Z,14.80
2019-02-26T16:40:52.578Z,14.83
2019-02-26T16:43:27.727Z,14.90
2019-02-26T16:45:59.244Z,15.05
2019-02-26T16:48:28.272Z,14.60
2019-02-26T16:50:59.023Z,15.20
2019-02-26T16:53:28.263Z,15.70
2019-02-26T16:55:57.234Z,15.93
2019-02-26T16:58:29.212Z,15.45
2019-02-26T17:00:58.146Z,16.25
2019-02-26T17:03:27.390Z,14.70
2019-02-26T17:05:57.534Z,14.98
2019-02-26T17:08:30.842Z,15.05
2019-02-26T17:10:59.988Z,15.75
2019-02-26T17:13:28.926Z,16.43
2019-02-26T17:15:59.635Z,17.10
2019-02-26T17:18:33.721Z,16.97
2019-02-26T17:21:04.338Z,16.67
2019-02-26T17:23:33.578Z,17.52
2019-02-26T17:26:06.628Z,16.75
2019-02-26T17:28:38.631Z,17.05
2019-02-26T17:31:12.513Z,15.80
2019-02-26T17:33:41.487Z,16.17
2019-02-26T17:36:13.784Z,16.80
2019-02-26T17:38:42.858Z,16.52
2019-02-26T17:41:14.354Z,16.25
2019-02-26T17:43:43.319Z,16.95
2019-02-26T17:46:12.302Z,17.40
2019-02-26T17:48:43.671Z,17.37
2019-02-26T17:51:13.813Z,17.40
2019-02-26T17:53:45.715Z,17.12
2019-02-26T17:56:16.953Z,18.12
2019-02-26T17:58:46.007Z,18.42
2019-02-26T18:01:17.279Z,17.93
2019-02-26T18:03:46.281Z,19.48
2019-02-26T18:06:19.757Z,21.17
2019-02-26T18:08:50.113Z,19.95
2019-02-26T18:11:23.504Z,20.72
2019-02-26T18:13:51.557Z,20.48
2019-02-26T18:16:20.532Z,20.40
2019-02-26T18:18:54.242Z,20.52
2019-02-26T18:21:24.275Z,20.75
2019-02-26T18:26:21.521Z,20.43
2019-02-26T18:28:54.065Z,21.93
2019-02-26T18:31:26.632Z,21.52
2019-02-26T18:33:55.520Z,21.05
2019-02-26T18:36:26.305Z,22.70
2019-02-26T18:38:55.742Z,22.20
2019-02-26T18:41:26.989Z,23.20
2019-02-26T18:43:58.450Z,22.15
2019-02-26T18:46:33.304Z,22.35
2019-02-26T18:49:01.041Z,21.80
2019-02-26T18:51:30.269Z,23.87
2019-02-26T18:54:03.573Z,23.30
2019-02-26T18:56:36.788Z,23.42
2019-02-26T18:59:07.151Z,24.15
2019-02-26T19:01:36.122Z,25.40
2019-02-26T19:04:05.102Z,25.02
2019-02-26T19:06:34.127Z,24.57
2019-02-26T19:12:32.832Z,23.38
2019-02-26T19:15:01.937Z,23.98
2019-02-26T19:18:02.005Z,24.92
2019-02-26T19:20:29.750Z,25.40
2019-02-26T19:22:59.565Z,24.98
2019-02-26T19:27:57.147Z,24.72
2019-02-26T19:30:26.105Z,25.82
2019-02-26T19:32:57.324Z,27.42
2019-02-26T19:35:34.775Z,25.88
2019-02-26T19:38:06.421Z,25.95
2019-02-26T19:40:39.842Z,26.65
2019-02-26T19:43:09.961Z,27.37
2019-02-26T19:45:43.826Z,26.85
2019-02-26T19:48:12.262Z,27.15
2019-02-26T19:50:47.866Z,25.82
2019-02-26T19:53:16.155Z,26.77
2019-02-26T19:55:49.852Z,26.35
2019-02-26T20:01:11.205Z,26.10
2019-02-26T20:03:40.905Z,26.82
2019-02-26T20:06:13.764Z,24.20
2019-02-26T20:08:44.023Z,24.95
2019-02-26T20:11:18.210Z,26.07
2019-02-26T20:13:47.217Z,25.97
2019-02-26T20:16:16.202Z,25.43
2019-02-26T20:18:48.214Z,25.62
2019-02-26T20:21:19.661Z,25.00
2019-02-26T20:23:49.214Z,24.63
2019-02-26T20:26:18.190Z,25.45
2019-02-26T20:28:49.570Z,24.18
2019-02-26T20:31:21.939Z,24.43
2019-02-26T20:33:51.916Z,24.30
2019-02-26T20:36:23.229Z,24.65
2019-02-26T20:38:53.838Z,24.18
2019-02-26T20:41:25.318Z,24.75
2019-02-26T20:43:54.302Z,23.52
2019-02-26T20:46:25.673Z,24.02
2019-02-26T20:48:56.758Z,24.52
2019-02-26T20:51:27.223Z,25.55
2019-02-26T20:53:58.645Z,23.85
2019-02-26T20:56:28.562Z,24.35
2019-02-26T20:59:00.108Z,24.72
2019-02-26T21:01:32.558Z,25.08
2019-02-26T21:04:01.496Z,25.35
2019-02-26T21:06:34.177Z,25.08
2019-02-26T21:09:07.105Z,25.95
2019-02-26T21:11:41.374Z,23.83
2019-02-26T21:14:10.402Z,24.45
2019-02-26T21:16:39.386Z,24.80
2019-02-26T21:19:24.007Z,25.12
2019-02-26T21:21:49.144Z,23.65
2019-02-26T21:24:19.077Z,25.65
2019-02-26T21:26:52.664Z,23.25
2019-02-26T21:29:21.145Z,23.95
2019-02-26T21:31:52.079Z,23.45
2019-02-26T21:34:24.491Z,23.42
2019-02-26T21:36:53.537Z,24.02
2019-02-26T21:39:22.611Z,23.85
2019-02-26T21:41:56.390Z,23.32
2019-02-26T21:44:26.656Z,23.32
2019-02-26T21:46:56.203Z,24.77
2019-02-26T21:51:59.810Z,22.37
2019-02-26T21:54:28.771Z,23.45
2019-02-26T21:56:59.524Z,23.52
2019-02-26T21:59:32.570Z,23.40
2019-02-26T22:02:00.991Z,24.18
2019-02-26T22:04:31.949Z,23.25
2019-02-26T22:07:03.957Z,24.02
2019-02-26T22:09:32.285Z,23.85
2019-02-26T22:12:01.835Z,23.75
2019-02-26T22:14:30.949Z,21.90
2019-02-26T22:17:01.451Z,24.77
2019-02-26T22:19:30.453Z,24.35
2019-02-26T22:21:59.458Z,25.52
2019-02-26T22:24:29.927Z,24.27
2019-02-26T22:27:00.322Z,23.98
2019-02-26T22:29:33.917Z,23.98
2019-02-26T22:32:02.779Z,23.42
2019-02-26T22:34:32.468Z,24.15
2019-02-26T22:37:07.118Z,24.15
2019-02-26T22:39:35.606Z,24.45
2019-02-26T22:42:09.432Z,24.02
2019-02-26T22:44:36.851Z,24.18
2019-02-26T22:47:08.740Z,22.00
2019-02-26T22:49:37.715Z,22.35
2019-02-26T22:52:08.934Z,24.18
2019-02-26T22:54:42.770Z,23.25
2019-02-26T22:57:14.264Z,23.40
2019-02-26T23:00:02.238Z,22.62
2019-02-26T23:02:32.814Z,23.85
2019-02-26T23:05:05.015Z,23.25
2019-02-26T23:07:39.384Z,23.07
2019-02-26T23:10:13.910Z,23.60
2019-02-26T23:12:43.510Z,22.85
2019-02-26T23:15:12.637Z,23.38
2019-02-26T23:17:47.050Z,23.32
2019-02-26T23:20:16.290Z,21.82
2019-02-26T23:22:45.256Z,22.67
2019-02-26T23:25:14.620Z,22.62
2019-02-26T23:27:46.134Z,21.42
2019-02-26T23:30:16.330Z,21.73
2019-02-26T23:32:45.500Z,21.65
2019-02-26T23:35:14.840Z,21.62
2019-02-26T23:37:43.807Z,22.50
2019-02-26T23:40:16.590Z,22.30
2019-02-26T23:42:45.569Z,22.20
2019-02-26T23:45:15.480Z,21.35
2019-02-26T23:47:47.482Z,22.05
2019-02-26T23:50:16.564Z,23.47
2019-02-26T23:52:45.816Z,21.55
2019-02-26T23:55:15.018Z,21.87
2019-02-26T23:57:44.050Z,21.12
